Time;durP1;ratioP1;P1;durP2;ratioP2;P2;SDS_P1;SDS_P2;PMS_P1;PMS_P2;Temp;Humidity;BMP_temperature;BMP_pressure;BME280_temperature;BME280_humidity;BME280_pressure;Samples;Min_cycle;Max_cycle;Signal;HPM_P1;HPM_P2
2023/04/19 00:01:59;;;;;;;;;;;12.20;70.80;;;;;;5073492;28;19908;-36
2023/04/19 00:04:24;;;;;;;;;;;12.20;71.00;;;;;;5073586;28;19915;-32
2023/04/19 00:06:50;;;;;;;;;;;12.20;71.00;;;;;;5073731;28;19915;-26
2023/04/19 00:09:16;;;;;;;;;;;12.20;70.90;;;;;;5072625;28;19908;-26
2023/04/19 00:11:41;;;;;;;;;;;12.20;70.70;;;;;;5073830;28;20449;-28
2023/04/19 00:14:07;;;;;;;;;;;12.10;70.50;;;;;;5073521;28;19908;-28
2023/04/19 00:16:32;;;;;;;;;;;12.10;70.40;;;;;;5073445;28;19959;-26
2023/04/19 00:18:58;;;;;;;;;;;12.10;70.50;;;;;;5073543;28;19909;-26
2023/04/19 00:21:23;;;;;;;;;;;12.00;70.70;;;;;;5073609;28;20571;-27
2023/04/19 00:23:49;;;;;;;;;;;12.00;70.80;;;;;;5073549;28;19912;-28
2023/04/19 00:26:14;;;;;;;;;;;11.90;71.30;;;;;;5073451;28;19908;-30
2023/04/19 00:28:40;;;;;;;;;;;11.90;71.30;;;;;;5073283;28;19920;-27
2023/04/19 00:31:05;;;;;;;;;;;11.90;71.70;;;;;;5073177;28;20263;-27
2023/04/19 00:33:31;;;;;;;;;;;11.80;71.80;;;;;;5073063;28;20352;-25
2023/04/19 00:35:57;;;;;;;;;;;11.70;71.90;;;;;;5073019;28;20041;-26
2023/04/19 00:38:22;;;;;;;;;;;11.70;71.80;;;;;;5073248;28;19938;-33
2023/04/19 00:40:48;;;;;;;;;;;11.70;71.80;;;;;;5073097;28;19908;-36
2023/04/19 00:43:17;;;;;;;;;;;11.60;71.90;;;;;;5072973;28;20079;-39
2023/04/19 00:45:43;;;;;;;;;;;11.60;71.90;;;;;;5073091;28;19917;-29
2023/04/19 00:48:08;;;;;;;;;;;11.50;71.90;;;;;;5072951;28;19909;-29
2023/04/19 00:50:34;;;;;;;;;;;11.50;71.90;;;;;;5072820;28;19908;-26
2023/04/19 00:53:01;;;;;;;;;;;11.50;71.90;;;;;;5072894;28;19928;-27
2023/04/19 00:55:26;;;;;;;;;;;11.40;71.90;;;;;;5072649;28;19908;-27
2023/04/19 00:57:52;;;;;;;;;;;11.50;72.00;;;;;;5072664;28;20225;-26
2023/04/19 01:00:18;;;;;;;;;;;11.40;71.90;;;;;;5071171;28;20395;-29
2023/04/19 01:02:44;;;;;;;;;;;11.40;71.90;;;;;;5072609;28;20340;-31
2023/04/19 01:05:09;;;;;;;;;;;11.40;71.80;;;;;;5072634;28;19916;-26
2023/04/19 01:07:35;;;;;;;;;;;11.50;72.20;;;;;;5072802;28;19908;-30
2023/04/19 01:10:00;;;;;;;;;;;11.40;72.10;;;;;;5072482;28;19915;-27
2023/04/19 01:12:26;;;;;;;;;;;11.40;72.10;;;;;;5072254;28;19914;-29
2023/04/19 01:14:51;;;;;;;;;;;11.40;72.10;;;;;;5072235;28;19908;-27
2023/04/19 01:17:18;;;;;;;;;;;11.40;72.00;;;;;;5072055;28;19962;-36
2023/04/19 01:19:43;;;;;;;;;;;11.40;72.00;;;;;;5072160;28;20349;-28
2023/04/19 01:22:09;;;;;;;;;;;11.40;72.00;;;;;;5071870;28;19916;-26
2023/04/19 01:24:34;;;;;;;;;;;11.40;72.00;;;;;;5071910;28;19908;-25
2023/04/19 01:27:01;;;;;;;;;;;11.40;72.20;;;;;;5071871;28;19909;-26
2023/04/19 01:29:26;;;;;;;;;;;11.40;72.20;;;;;;5071902;28;19921;-26
2023/04/19 01:31:52;;;;;;;;;;;11.40;72.30;;;;;;5071777;28;19915;-30
2023/04/19 01:34:18;;;;;;;;;;;11.30;72.40;;;;;;5071763;28;20360;-33
2023/04/19 01:36:44;;;;;;;;;;;11.30;72.50;;;;;;5071684;28;19909;-26
2023/04/19 01:39:09;;;;;;;;;;;11.20;72.50;;;;;;5071806;28;20385;-26
2023/04/19 01:41:35;;;;;;;;;;;11.20;72.60;;;;;;5070453;28;19918;-27
2023/04/19 01:44:00;;;;;;;;;;;11.10;72.60;;;;;;5071879;28;19912;-25
2023/04/19 01:46:26;;;;;;;;;;;11.10;72.70;;;;;;5072020;28;19915;-26
2023/04/19 01:48:51;;;;;;;;;;;11.10;72.80;;;;;;5071610;28;20367;-24
2023/04/19 01:51:17;;;;;;;;;;;11.00;72.70;;;;;;5071663;28;20336;-26
2023/04/19 01:53:42;;;;;;;;;;;11.00;72.80;;;;;;5071771;28;20364;-29
2023/04/19 01:56:08;;;;;;;;;;;11.00;72.90;;;;;;5071884;28;19909;-25
2023/04/19 01:58:33;;;;;;;;;;;10.90;72.90;;;;;;5070235;28;19916;-29
2023/04/19 02:00:59;;;;;;;;;;;10.90;73.00;;;;;;5071512;28;20280;-29
2023/04/19 02:03:24;;;;;;;;;;;10.90;73.00;;;;;;5071330;28;19912;-28
2023/04/19 02:05:49;;;;;;;;;;;10.90;73.10;;;;;;5071301;28;19908;-26
2023/04/19 02:08:15;;;;;;;;;;;10.80;73.10;;;;;;5071269;28;19908;-25
2023/04/19 02:10:40;;;;;;;;;;;10.80;73.10;;;;;;5071266;28;19912;-28
2023/04/19 02:13:06;;;;;;;;;;;10.80;73.10;;;;;;5071342;28;19919;-28
2023/04/19 02:15:31;;;;;;;;;;;10.80;73.10;;;;;;5071441;28;19978;-27
2023/04/19 02:17:59;;;;;;;;;;;10.70;73.10;;;;;;5071420;28;19947;-28
2023/04/19 02:20:24;;;;;;;;;;;10.70;73.20;;;;;;5071651;28;20383;-26
2023/04/19 02:22:50;;;;;;;;;;;10.80;73.20;;;;;;5071282;28;19931;-27
2023/04/19 02:25:15;;;;;;;;;;;10.80;73.20;;;;;;5071279;28;20198;-31
2023/04/19 02:27:41;;;;;;;;;;;10.80;73.10;;;;;;5071239;28;19909;-28
2023/04/19 02:30:06;;;;;;;;;;;10.90;73.00;;;;;;5071136;28;19920;-29
2023/04/19 02:32:32;;;;;;;;;;;10.90;73.00;;;;;;5072360;28;20405;-27
2023/04/19 02:34:57;;;;;;;;;;;10.90;72.90;;;;;;5075305;28;20106;-31
2023/04/19 02:37:23;;;;;;;;;;;11.00;72.90;;;;;;5075230;28;19919;-30
2023/04/19 02:39:48;;;;;;;;;;;11.10;72.80;;;;;;5075020;28;19936;-29
2023/04/19 02:42:14;;;;;;;;;;;11.10;73.00;;;;;;5075024;28;19920;-28
2023/04/19 02:44:39;;;;;;;;;;;11.10;73.10;;;;;;5075174;28;19995;-27
2023/04/19 02:47:05;;;;;;;;;;;11.10;73.00;;;;;;5075298;28;19909;-27
2023/04/19 02:49:35;;;;;;;;;;;11.10;73.00;;;;;;5074835;28;20106;-31
2023/04/19 02:52:01;;;;;;;;;;;11.10;73.00;;;;;;5074957;28;19909;-31
2023/04/19 02:54:26;;;;;;;;;;;11.10;73.00;;;;;;5075007;28;19915;-26
2023/04/19 02:56:52;;;;;;;;;;;11.10;73.10;;;;;;5074690;28;19912;-25
2023/04/19 02:59:17;;;;;;;;;;;11.20;73.20;;;;;;5074690;28;19913;-32
2023/04/19 03:01:43;;;;;;;;;;;11.20;73.20;;;;;;5074741;28;20364;-30
2023/04/19 03:04:08;;;;;;;;;;;11.20;73.20;;;;;;5074569;28;19967;-30
2023/04/19 03:06:35;;;;;;;;;;;11.20;73.30;;;;;;5074595;28;19916;-26
2023/04/19 03:09:00;;;;;;;;;;;11.20;73.10;;;;;;5074175;28;19915;-31
2023/04/19 03:11:26;;;;;;;;;;;11.20;73.20;;;;;;5074540;28;19908;-28
2023/04/19 03:13:51;;;;;;;;;;;11.20;73.20;;;;;;5074425;28;20360;-27
2023/04/19 03:16:17;;;;;;;;;;;11.20;73.10;;;;;;5074209;28;19908;-31
2023/04/19 03:18:42;;;;;;;;;;;11.20;73.10;;;;;;5074449;28;20403;-32
2023/04/19 03:21:08;;;;;;;;;;;11.20;73.10;;;;;;5074240;28;19959;-25
2023/04/19 03:23:34;;;;;;;;;;;11.20;73.20;;;;;;5074148;28;19913;-26
2023/04/19 03:25:59;;;;;;;;;;;11.20;73.10;;;;;;5074207;28;19976;-28
2023/04/19 03:28:25;;;;;;;;;;;11.20;73.00;;;;;;5072213;28;19946;-27
2023/04/19 03:30:50;;;;;;;;;;;11.20;73.00;;;;;;5073856;28;20003;-29
2023/04/19 03:33:15;;;;;;;;;;;11.20;73.00;;;;;;5073894;28;19957;-28
2023/04/19 03:35:42;;;;;;;;;;;11.20;72.90;;;;;;5072382;28;19908;-27
2023/04/19 03:38:07;;;;;;;;;;;11.20;73.10;;;;;;5073961;28;19909;-26
2023/04/19 03:40:33;;;;;;;;;;;11.20;73.00;;;;;;5073818;28;20237;-25
2023/04/19 03:42:58;;;;;;;;;;;11.10;73.10;;;;;;5073806;28;19919;-26
2023/04/19 03:45:24;;;;;;;;;;;11.10;73.20;;;;;;5072608;28;19909;-25
2023/04/19 03:47:49;;;;;;;;;;;11.10;73.20;;;;;;5073672;28;19915;-27
2023/04/19 03:50:15;;;;;;;;;;;11.00;73.20;;;;;;5073668;28;19974;-25
2023/04/19 03:52:40;;;;;;;;;;;11.00;73.30;;;;;;5073672;28;20356;-27
2023/04/19 03:55:06;;;;;;;;;;;11.00;73.30;;;;;;5073807;28;19915;-26
2023/04/19 03:57:32;;;;;;;;;;;11.00;73.40;;;;;;5073623;28;20011;-31
2023/04/19 03:59:57;;;;;;;;;;;10.90;73.40;;;;;;5073620;28;20022;-29
2023/04/19 04:02:23;;;;;;;;;;;10.90;73.40;;;;;;5073525;28;19969;-25
2023/04/19 04:04:54;;;;;;;;;;;10.90;73.50;;;;;;5073474;28;19908;-28
2023/04/19 04:07:20;;;;;;;;;;;10.80;73.40;;;;;;5073640;28;19915;-25
2023/04/19 04:09:47;;;;;;;;;;;10.80;73.30;;;;;;5073655;28;19908;-39
2023/04/19 04:12:12;;;;;;;;;;;10.70;73.40;;;;;;5073784;28;20284;-27
2023/04/19 04:14:38;;;;;;;;;;;10.60;73.40;;;;;;5073556;28;19909;-29
2023/04/19 04:17:03;;;;;;;;;;;10.60;73.40;;;;;;5073539;28;19916;-27
2023/04/19 04:19:29;;;;;;;;;;;10.50;73.30;;;;;;5073451;28;19915;-28
2023/04/19 04:21:54;;;;;;;;;;;10.50;73.30;;;;;;5073235;28;19916;-27
2023/04/19 04:24:21;;;;;;;;;;;10.40;73.30;;;;;;5071948;28;19993;-28
2023/04/19 04:26:48;;;;;;;;;;;10.40;73.50;;;;;;5073428;28;19908;-27
2023/04/19 04:29:14;;;;;;;;;;;10.40;73.20;;;;;;5073125;28;20305;-27
2023/04/19 04:31:39;;;;;;;;;;;10.30;73.50;;;;;;5073124;28;19999;-31
2023/04/19 04:34:05;;;;;;;;;;;10.30;73.50;;;;;;5073057;28;19919;-27
2023/04/19 04:36:30;;;;;;;;;;;10.30;73.40;;;;;;5073409;28;20414;-29
2023/04/19 04:38:56;;;;;;;;;;;10.30;73.40;;;;;;5073217;28;19926;-31
2023/04/19 04:41:22;;;;;;;;;;;10.20;73.20;;;;;;5073102;28;19926;-28
2023/04/19 04:43:50;;;;;;;;;;;10.20;73.10;;;;;;5072959;28;19916;-30
2023/04/19 04:46:16;;;;;;;;;;;10.20;73.10;;;;;;5072948;28;20578;-27
2023/04/19 04:48:41;;;;;;;;;;;10.10;73.10;;;;;;5072860;28;19912;-28
2023/04/19 04:51:07;;;;;;;;;;;10.10;73.70;;;;;;5071411;28;20338;-36
2023/04/19 04:53:32;;;;;;;;;;;10.10;73.10;;;;;;5072726;28;19917;-27
2023/04/19 04:55:58;;;;;;;;;;;10.00;72.90;;;;;;5072499;28;19920;-28
2023/04/19 04:58:23;;;;;;;;;;;10.00;72.90;;;;;;5072610;28;19939;-31
2023/04/19 05:00:49;;;;;;;;;;;10.00;72.90;;;;;;5072663;28;19912;-30
2023/04/19 05:03:15;;;;;;;;;;;10.00;72.90;;;;;;5072601;28;19923;-29
2023/04/19 05:05:41;;;;;;;;;;;10.00;73.00;;;;;;5072653;28;20372;-27
2023/04/19 05:08:06;;;;;;;;;;;9.90;72.90;;;;;;5072381;28;19920;-28
2023/04/19 05:10:32;;;;;;;;;;;9.90;72.90;;;;;;5072457;28;19931;-31
2023/04/19 05:12:57;;;;;;;;;;;9.90;72.90;;;;;;5072354;28;19954;-28
2023/04/19 05:15:23;;;;;;;;;;;9.90;73.00;;;;;;5072362;28;19924;-27
2023/04/19 05:17:48;;;;;;;;;;;9.80;72.90;;;;;;5072246;28;20444;-28
2023/04/19 05:20:14;;;;;;;;;;;9.80;72.90;;;;;;5072216;28;19958;-28
2023/04/19 05:22:39;;;;;;;;;;;9.80;72.90;;;;;;5071992;28;20352;-30
2023/04/19 05:25:05;;;;;;;;;;;9.80;72.90;;;;;;5072234;28;19912;-27
2023/04/19 05:27:31;;;;;;;;;;;9.80;72.90;;;;;;5072102;28;19919;-28
2023/04/19 05:29:56;;;;;;;;;;;9.80;72.80;;;;;;5072060;28;20009;-29
2023/04/19 05:32:22;;;;;;;;;;;9.80;72.80;;;;;;5072193;28;19912;-27
2023/04/19 05:34:47;;;;;;;;;;;9.80;72.70;;;;;;5072203;28;19913;-37
2023/04/19 05:37:13;;;;;;;;;;;9.70;73.10;;;;;;5072266;28;19912;-29
2023/04/19 05:39:38;;;;;;;;;;;9.70;72.40;;;;;;5072205;28;20395;-31
2023/04/19 05:42:04;;;;;;;;;;;9.70;72.40;;;;;;5072061;28;19944;-27
2023/04/19 05:44:29;;;;;;;;;;;9.70;72.30;;;;;;5071985;28;19913;-29
2023/04/19 05:46:55;;;;;;;;;;;9.70;72.30;;;;;;5072141;28;19978;-26
2023/04/19 05:49:20;;;;;;;;;;;9.70;72.10;;;;;;5071903;28;20304;-28
2023/04/19 05:51:46;;;;;;;;;;;9.70;72.20;;;;;;5072115;28;19979;-27
2023/04/19 05:54:13;;;;;;;;;;;9.80;72.20;;;;;;5071785;28;20404;-26
2023/04/19 05:56:38;;;;;;;;;;;9.80;72.10;;;;;;5071871;28;19912;-27
2023/04/19 05:59:05;;;;;;;;;;;9.80;71.70;;;;;;5071731;28;19913;-26
2023/04/19 06:01:30;;;;;;;;;;;9.80;71.60;;;;;;5070374;28;19913;-28
2023/04/19 06:03:56;;;;;;;;;;;9.90;71.60;;;;;;5072093;28;19973;-28
2023/04/19 06:06:22;;;;;;;;;;;9.90;71.10;;;;;;5070602;28;19913;-28
2023/04/19 06:08:48;;;;;;;;;;;10.00;70.40;;;;;;5075324;28;20272;-38
2023/04/19 06:11:13;;;;;;;;;;;10.00;70.30;;;;;;5076274;28;19933;-27
2023/04/19 06:13:39;;;;;;;;;;;10.00;69.50;;;;;;5075957;28;19912;-34
2023/04/19 06:16:05;;;;;;;;;;;10.10;69.60;;;;;;5076301;28;19978;-27
2023/04/19 06:18:30;;;;;;;;;;;10.10;69.90;;;;;;5076186;28;19958;-26
2023/04/19 06:20:56;;;;;;;;;;;10.10;69.40;;;;;;5076019;28;19980;-31
2023/04/19 06:23:22;;;;;;;;;;;10.20;69.30;;;;;;5075967;28;20286;-31
2023/04/19 06:25:47;;;;;;;;;;;10.20;66.70;;;;;;5075911;28;19921;-36
2023/04/19 06:28:13;;;;;;;;;;;10.30;67.80;;;;;;5075650;28;20431;-32
2023/04/19 06:30:38;;;;;;;;;;;10.30;67.30;;;;;;5075368;28;19913;-33
2023/04/19 06:33:04;;;;;;;;;;;10.40;67.80;;;;;;5075318;28;19918;-31
2023/04/19 06:35:30;;;;;;;;;;;10.40;67.40;;;;;;5075315;28;19962;-42
2023/04/19 06:37:55;;;;;;;;;;;10.50;68.20;;;;;;5075297;28;19916;-33
2023/04/19 06:40:21;;;;;;;;;;;10.50;68.20;;;;;;5075463;28;19919;-34
2023/04/19 06:42:46;;;;;;;;;;;10.50;66.80;;;;;;5075080;28;19923;-32
2023/04/19 06:45:13;;;;;;;;;;;10.60;67.30;;;;;;5075137;28;19924;-35
2023/04/19 06:47:39;;;;;;;;;;;10.60;67.90;;;;;;5075113;28;19913;-35
2023/04/19 06:50:05;;;;;;;;;;;10.70;69.00;;;;;;5075240;28;19920;-33
2023/04/19 06:52:30;;;;;;;;;;;10.70;68.00;;;;;;5075084;28;20317;-33
2023/04/19 06:54:56;;;;;;;;;;;10.70;68.00;;;;;;5074946;28;20285;-32
2023/04/19 06:57:21;;;;;;;;;;;10.70;67.60;;;;;;5074729;28;19913;-33
2023/04/19 06:59:47;;;;;;;;;;;10.70;68.00;;;;;;5075272;28;19912;-30
2023/04/19 07:02:12;;;;;;;;;;;10.70;66.20;;;;;;5073483;28;19962;-29
2023/04/19 07:04:38;;;;;;;;;;;10.70;65.90;;;;;;5074958;28;19952;-29
2023/04/19 07:07:03;;;;;;;;;;;10.70;67.30;;;;;;5073583;28;19938;-29
2023/04/19 07:09:29;;;;;;;;;;;10.70;68.40;;;;;;5074725;28;19913;-30
2023/04/19 07:11:54;;;;;;;;;;;10.80;70.30;;;;;;5074810;28;19929;-29
2023/04/19 07:14:20;;;;;;;;;;;10.80;64.30;;;;;;5074904;28;19912;-32
2023/04/19 07:16:46;;;;;;;;;;;10.70;63.60;;;;;;5074634;28;19912;-30
2023/04/19 07:19:12;;;;;;;;;;;10.70;68.50;;;;;;5074609;28;19932;-33
2023/04/19 07:21:38;;;;;;;;;;;10.70;67.90;;;;;;5074642;28;19912;-34
2023/04/19 07:24:05;;;;;;;;;;;10.70;66.90;;;;;;5074420;28;19920;-37
2023/04/19 07:26:30;;;;;;;;;;;10.70;65.20;;;;;;5074580;28;19919;-37
2023/04/19 07:28:57;;;;;;;;;;;10.70;67.40;;;;;;5074335;28;19921;-36
2023/04/19 07:31:23;;;;;;;;;;;10.80;68.00;;;;;;5074755;28;19912;-32
2023/04/19 07:33:49;;;;;;;;;;;10.70;65.10;;;;;;5074495;28;20455;-30
2023/04/19 07:36:14;;;;;;;;;;;10.70;70.00;;;;;;5074308;28;19952;-30
2023/04/19 07:38:40;;;;;;;;;;;10.70;72.90;;;;;;5074385;28;19913;-31
2023/04/19 07:41:06;;;;;;;;;;;10.80;72.60;;;;;;5072980;28;19973;-31
2023/04/19 07:43:31;;;;;;;;;;;10.90;71.50;;;;;;5074289;28;19916;-29
2023/04/19 07:45:57;;;;;;;;;;;10.90;70.90;;;;;;5074633;28;19912;-30
2023/04/19 07:48:22;;;;;;;;;;;10.90;66.50;;;;;;5074514;28;19917;-29
2023/04/19 07:50:48;;;;;;;;;;;11.00;67.40;;;;;;5074362;28;19912;-29
2023/04/19 07:53:14;;;;;;;;;;;11.00;65.40;;;;;;5074203;28;19959;-30
2023/04/19 07:55:39;;;;;;;;;;;11.00;61.40;;;;;;5074409;28;19944;-30
2023/04/19 07:58:05;;;;;;;;;;;11.00;62.40;;;;;;5074385;28;19912;-28
2023/04/19 08:00:33;;;;;;;;;;;11.00;59.30;;;;;;5074220;28;19970;-28
2023/04/19 08:02:59;;;;;;;;;;;11.00;59.20;;;;;;5074128;28;20464;-31
2023/04/19 08:05:25;;;;;;;;;;;11.00;60.40;;;;;;5074030;28;20003;-35
2023/04/19 08:07:51;;;;;;;;;;;11.10;60.50;;;;;;5074010;28;19912;-33
2023/04/19 08:10:17;;;;;;;;;;;11.10;55.90;;;;;;5073744;28;20094;-30
2023/04/19 08:12:42;;;;;;;;;;;11.10;58.10;;;;;;5073788;28;19912;-32
2023/04/19 08:15:08;;;;;;;;;;;11.10;57.70;;;;;;5073845;28;19913;-31
2023/04/19 08:17:33;;;;;;;;;;;11.10;58.10;;;;;;5073520;28;19928;-29
2023/04/19 08:19:59;;;;;;;;;;;11.20;58.40;;;;;;5073510;28;19916;-31
2023/04/19 08:22:25;;;;;;;;;;;11.20;57.80;;;;;;5073637;28;19939;-37
2023/04/19 08:24:50;;;;;;;;;;;11.30;58.00;;;;;;5073500;28;19912;-31
2023/04/19 08:27:16;;;;;;;;;;;11.40;57.70;;;;;;5073397;28;19912;-30
2023/04/19 08:29:42;;;;;;;;;;;11.40;58.00;;;;;;5072920;28;19920;-30
2023/04/19 08:32:07;;;;;;;;;;;11.50;57.60;;;;;;5071893;28;19916;-29
2023/04/19 08:34:37;;;;;;;;;;;11.60;55.60;;;;;;5071649;28;19917;-40
2023/04/19 08:37:03;;;;;;;;;;;11.60;58.60;;;;;;5072989;28;19951;-29
2023/04/19 08:39:32;;;;;;;;;;;11.60;60.90;;;;;;5072894;28;19952;-31
2023/04/19 08:42:02;;;;;;;;;;;11.60;63.10;;;;;;5071301;28;20400;-30
2023/04/19 08:44:29;;;;;;;;;;;11.70;59.50;;;;;;5072906;28;20295;-29
2023/04/19 08:46:56;;;;;;;;;;;11.80;59.60;;;;;;5072894;28;19912;-29
2023/04/19 08:49:21;;;;;;;;;;;11.80;62.50;;;;;;5072744;28;20372;-37
2023/04/19 08:51:48;;;;;;;;;;;11.90;66.80;;;;;;5072664;28;19913;-33
2023/04/19 08:54:15;;;;;;;;;;;11.90;66.50;;;;;;5072874;28;20053;-30
2023/04/19 08:56:40;;;;;;;;;;;12.00;66.30;;;;;;5072918;28;19913;-29
2023/04/19 08:59:06;;;;;;;;;;;12.00;66.10;;;;;;5072865;28;19918;-30
2023/04/19 09:01:31;;;;;;;;;;;12.10;66.50;;;;;;5072621;28;19912;-31
2023/04/19 09:03:57;;;;;;;;;;;12.10;65.70;;;;;;5072566;28;19962;-29
2023/04/19 09:06:22;;;;;;;;;;;12.10;67.20;;;;;;5072355;28;19916;-34
2023/04/19 09:08:50;;;;;;;;;;;12.20;68.90;;;;;;5072590;28;19984;-36
2023/04/19 09:11:15;;;;;;;;;;;12.20;68.40;;;;;;5072509;28;19913;-31
2023/04/19 09:13:43;;;;;;;;;;;12.20;69.70;;;;;;5072378;28;19927;-33
2023/04/19 09:16:21;;;;;;;;;;;12.30;68.80;;;;;;5071930;28;20310;-33
2023/04/19 09:18:54;;;;;;;;;;;12.40;68.40;;;;;;5072002;28;19962;-29
2023/04/19 09:21:27;;;;;;;;;;;12.40;67.90;;;;;;5070656;28;19913;-34
2023/04/19 09:23:52;;;;;;;;;;;12.40;66.40;;;;;;5071828;28;19916;-30
2023/04/19 09:26:18;;;;;;;;;;;12.40;69.40;;;;;;5072011;28;19966;-37
2023/04/19 09:28:54;;;;;;;;;;;12.50;70.20;;;;;;5071776;28;19942;-31
2023/04/19 09:31:19;;;;;;;;;;;12.50;66.70;;;;;;5072052;28;19912;-32
2023/04/19 09:33:45;;;;;;;;;;;12.50;62.20;;;;;;5071799;28;19913;-33
2023/04/19 09:36:25;;;;;;;;;;;12.50;65.50;;;;;;5071965;28;19919;-35
2023/04/19 09:38:51;;;;;;;;;;;12.50;67.70;;;;;;5071595;28;19913;-35
2023/04/19 09:41:16;;;;;;;;;;;12.60;66.40;;;;;;5071220;28;20360;-33
2023/04/19 09:43:42;;;;;;;;;;;12.70;66.00;;;;;;5070943;28;19959;-36
2023/04/19 09:46:08;;;;;;;;;;;12.70;65.20;;;;;;5071693;28;19913;-31
2023/04/19 09:48:35;;;;;;;;;;;12.80;66.50;;;;;;5071713;28;19912;-40
2023/04/19 09:51:01;;;;;;;;;;;12.90;66.00;;;;;;5071610;28;19912;-33
2023/04/19 09:53:28;;;;;;;;;;;12.90;68.30;;;;;;5071529;28;19912;-32
2023/04/19 09:55:54;;;;;;;;;;;12.90;65.90;;;;;;5071535;28;19982;-32
2023/04/19 09:58:20;;;;;;;;;;;13.00;65.20;;;;;;5071966;28;20423;-32
2023/04/19 10:00:46;;;;;;;;;;;13.10;59.60;;;;;;5071617;28;19912;-29
2023/04/19 10:03:13;;;;;;;;;;;13.10;53.70;;;;;;5071403;28;19920;-34
2023/04/19 10:05:40;;;;;;;;;;;13.00;60.00;;;;;;5071568;28;19913;-38
2023/04/19 10:08:10;;;;;;;;;;;13.00;64.70;;;;;;5071476;28;20343;-31
2023/04/19 10:10:36;;;;;;;;;;;13.10;66.50;;;;;;5071250;28;19947;-31
2023/04/19 10:13:03;;;;;;;;;;;13.10;58.90;;;;;;5071238;28;20007;-31
2023/04/19 10:15:33;;;;;;;;;;;13.10;54.30;;;;;;5071587;28;20503;-30
2023/04/19 10:17:58;;;;;;;;;;;13.10;54.90;;;;;;5071531;28;19919;-41
2023/04/19 10:20:28;;;;;;;;;;;13.10;60.10;;;;;;5071357;28;19912;-30
2023/04/19 10:22:54;;;;;;;;;;;13.20;60.60;;;;;;5071197;28;19916;-34
2023/04/19 10:25:26;;;;;;;;;;;13.20;61.90;;;;;;5071397;28;19920;-37
2023/04/19 10:27:52;;;;;;;;;;;13.40;62.50;;;;;;5071714;28;19919;-33
2023/04/19 10:30:18;;;;;;;;;;;13.40;60.60;;;;;;5071255;28;19921;-35
2023/04/19 10:32:44;;;;;;;;;;;13.50;61.70;;;;;;5071333;28;20364;-30
2023/04/19 10:35:39;;;;;;;;;;;13.60;60.50;;;;;;5071211;28;20441;-31
2023/04/19 10:38:12;;;;;;;;;;;13.50;61.50;;;;;;5065183;28;19912;-34
2023/04/19 10:40:49;;;;;;;;;;;13.60;60.40;;;;;;5071191;28;19916;-37
2023/04/19 10:43:16;;;;;;;;;;;13.60;53.00;;;;;;5071185;28;20372;-31
2023/04/19 10:45:42;;;;;;;;;;;13.60;58.80;;;;;;5071151;28;19912;-34
2023/04/19 10:48:34;;;;;;;;;;;13.70;56.40;;;;;;5071126;28;20361;-32
2023/04/19 10:51:17;;;;;;;;;;;13.80;60.00;;;;;;5071218;28;20326;-30
2023/04/19 10:53:55;;;;;;;;;;;13.80;62.30;;;;;;5072561;28;19923;-34
2023/04/19 10:56:36;;;;;;;;;;;13.90;63.60;;;;;;5075115;28;19973;-33
2023/04/19 10:59:10;;;;;;;;;;;13.90;56.60;;;;;;5075539;28;20003;-32
2023/04/19 11:01:39;;;;;;;;;;;14.00;56.10;;;;;;5075378;28;20003;-34
2023/04/19 11:04:05;;;;;;;;;;;14.00;59.10;;;;;;5075396;28;19920;-33
2023/04/19 11:06:34;;;;;;;;;;;14.10;58.90;;;;;;5075457;28;19912;-30
2023/04/19 11:09:01;;;;;;;;;;;14.10;59.20;;;;;;5075386;28;19919;-31
2023/04/19 11:11:27;;;;;;;;;;;14.20;63.60;;;;;;5075411;28;19919;-32
2023/04/19 11:13:54;;;;;;;;;;;14.30;56.70;;;;;;5075152;28;20356;-35
2023/04/19 11:16:19;;;;;;;;;;;14.50;62.30;;;;;;5075114;28;20356;-33
2023/04/19 11:18:45;;;;;;;;;;;14.50;66.00;;;;;;5074951;28;19920;-33
2023/04/19 11:21:16;;;;;;;;;;;14.60;65.90;;;;;;5075187;28;19912;-32
2023/04/19 11:23:42;;;;;;;;;;;14.70;67.20;;;;;;5075077;28;19970;-33
2023/04/19 11:26:11;;;;;;;;;;;14.80;64.20;;;;;;5075053;28;19917;-30
2023/04/19 11:28:39;;;;;;;;;;;14.80;64.20;;;;;;5074680;28;19920;-36
2023/04/19 11:31:05;;;;;;;;;;;14.90;65.60;;;;;;5073075;28;19912;-33
2023/04/19 11:33:34;;;;;;;;;;;15.00;65.40;;;;;;5075050;28;20426;-30
2023/04/19 11:36:00;;;;;;;;;;;15.00;65.30;;;;;;5074755;28;20531;-30
2023/04/19 11:38:29;;;;;;;;;;;15.00;61.20;;;;;;5074503;28;19995;-32
2023/04/19 11:40:58;;;;;;;;;;;15.10;63.80;;;;;;5074709;28;19954;-36
2023/04/19 11:43:30;;;;;;;;;;;15.20;65.60;;;;;;5074766;28;20265;-33
2023/04/19 11:46:03;;;;;;;;;;;15.20;65.90;;;;;;5074996;28;19987;-34
2023/04/19 11:48:28;;;;;;;;;;;15.30;65.40;;;;;;5074697;28;19973;-31
2023/04/19 11:50:56;;;;;;;;;;;15.30;64.70;;;;;;5074486;28;19913;-34
2023/04/19 11:53:23;;;;;;;;;;;15.40;65.00;;;;;;5074360;28;19913;-40
2023/04/19 11:55:52;;;;;;;;;;;15.50;58.90;;;;;;5074375;28;19916;-39
2023/04/19 11:58:24;;;;;;;;;;;15.50;58.90;;;;;;5074266;28;19927;-30
2023/04/19 12:00:50;;;;;;;;;;;15.60;60.20;;;;;;5074533;28;19920;-36
2023/04/19 12:03:19;;;;;;;;;;;15.60;61.10;;;;;;5074336;28;20384;-33
2023/04/19 12:05:52;;;;;;;;;;;15.70;56.30;;;;;;5073178;28;20414;-31
2023/04/19 12:08:28;;;;;;;;;;;15.70;59.30;;;;;;5074031;28;19912;-34
2023/04/19 12:10:57;;;;;;;;;;;15.70;53.90;;;;;;5074048;28;19923;-35
2023/04/19 12:13:25;;;;;;;;;;;15.80;61.60;;;;;;5074381;28;19923;-36
2023/04/19 12:15:51;;;;;;;;;;;15.90;62.90;;;;;;5074418;28;19913;-32
2023/04/19 12:18:17;;;;;;;;;;;15.90;58.30;;;;;;5073899;28;19912;-32
2023/04/19 12:20:46;;;;;;;;;;;15.90;54.00;;;;;;5073967;28;20361;-37
2023/04/19 12:23:16;;;;;;;;;;;15.90;51.80;;;;;;5073711;28;19928;-32
2023/04/19 12:25:42;;;;;;;;;;;15.90;55.10;;;;;;5073748;28;20398;-36
2023/04/19 12:28:07;;;;;;;;;;;16.00;57.00;;;;;;5073635;28;19919;-36
2023/04/19 12:30:35;;;;;;;;;;;16.00;53.80;;;;;;5073762;28;19921;-33
2023/04/19 12:33:01;;;;;;;;;;;16.10;57.20;;;;;;5073690;28;19957;-33
2023/04/19 12:35:26;;;;;;;;;;;16.10;56.70;;;;;;5073557;28;20285;-32
2023/04/19 12:37:53;;;;;;;;;;;16.10;57.70;;;;;;5073679;28;19920;-39
2023/04/19 12:40:18;;;;;;;;;;;16.20;58.10;;;;;;5073625;28;19912;-32
2023/04/19 12:42:44;;;;;;;;;;;16.30;53.70;;;;;;5073328;28;19916;-40
2023/04/19 12:45:10;;;;;;;;;;;16.30;55.30;;;;;;5073641;28;20318;-34
2023/04/19 12:47:35;;;;;;;;;;;16.40;54.30;;;;;;5073321;28;19916;-34
2023/04/19 12:50:01;;;;;;;;;;;16.40;56.10;;;;;;5073335;28;19919;-31
2023/04/19 12:52:27;;;;;;;;;;;16.50;56.40;;;;;;5071817;28;19989;-33
2023/04/19 12:54:52;;;;;;;;;;;16.50;53.70;;;;;;5071561;28;19916;-35
2023/04/19 12:57:18;;;;;;;;;;;16.60;57.30;;;;;;5073008;28;20266;-31
2023/04/19 12:59:43;;;;;;;;;;;16.60;56.20;;;;;;5073021;28;19920;-33
2023/04/19 13:02:08;;;;;;;;;;;16.70;57.20;;;;;;5071181;28;19955;-35
2023/04/19 13:04:34;;;;;;;;;;;16.70;46.90;;;;;;5072787;28;20316;-33
2023/04/19 13:07:00;;;;;;;;;;;16.70;52.00;;;;;;5072787;28;19948;-36
2023/04/19 13:09:26;;;;;;;;;;;16.70;51.40;;;;;;5072477;28;19908;-38
2023/04/19 13:11:53;;;;;;;;;;;16.70;55.50;;;;;;5072660;28;19961;-36
2023/04/19 13:14:18;;;;;;;;;;;16.70;57.70;;;;;;5072669;28;19951;-55
2023/04/19 13:16:44;;;;;;;;;;;16.80;59.10;;;;;;5072480;28;20359;-31
2023/04/19 13:19:09;;;;;;;;;;;16.90;54.90;;;;;;5072961;28;20226;-35
2023/04/19 13:21:35;;;;;;;;;;;16.90;53.70;;;;;;5072376;28;20005;-44
2023/04/19 13:24:00;;;;;;;;;;;16.90;55.80;;;;;;5072303;28;19974;-34
2023/04/19 13:26:26;;;;;;;;;;;17.00;50.30;;;;;;5072305;28;20082;-34
2023/04/19 13:28:51;;;;;;;;;;;17.10;54.70;;;;;;5072381;28;19925;-30
2023/04/19 13:31:17;;;;;;;;;;;17.10;50.70;;;;;;5072390;28;19931;-36
2023/04/19 13:33:42;;;;;;;;;;;17.10;45.90;;;;;;5072243;28;19913;-34
2023/04/19 13:36:08;;;;;;;;;;;17.20;46.60;;;;;;5070882;28;19909;-29
2023/04/19 13:38:33;;;;;;;;;;;17.20;42.50;;;;;;5071912;28;19909;-37
2023/04/19 13:40:59;;;;;;;;;;;17.20;46.90;;;;;;5072062;28;19909;-31
2023/04/19 13:43:25;;;;;;;;;;;17.30;46.40;;;;;;5071759;28;19913;-31
2023/04/19 13:45:50;;;;;;;;;;;17.40;50.40;;;;;;5071882;28;19908;-32
2023/04/19 13:48:16;;;;;;;;;;;17.50;49.00;;;;;;5071970;28;19915;-33
2023/04/19 13:50:42;;;;;;;;;;;17.50;49.60;;;;;;5072208;28;19908;-33
2023/04/19 13:53:07;;;;;;;;;;;17.60;53.10;;;;;;5072237;28;19909;-31
2023/04/19 13:55:33;;;;;;;;;;;17.70;53.90;;;;;;5072022;28;20011;-32
2023/04/19 13:57:58;;;;;;;;;;;17.80;53.60;;;;;;5072388;28;19909;-37
2023/04/19 14:00:24;;;;;;;;;;;17.90;51.20;;;;;;5071990;28;20275;-35
2023/04/19 14:02:49;;;;;;;;;;;18.00;46.80;;;;;;5071722;28;20237;-35
2023/04/19 14:05:15;;;;;;;;;;;18.00;46.00;;;;;;5071950;28;19952;-33
2023/04/19 14:07:40;;;;;;;;;;;18.00;50.70;;;;;;5072173;28;19948;-33
2023/04/19 14:10:07;;;;;;;;;;;18.10;46.10;;;;;;5071831;28;19908;-37
2023/04/19 14:12:33;;;;;;;;;;;18.10;48.60;;;;;;5071776;28;20002;-33
2023/04/19 14:14:58;;;;;;;;;;;18.20;52.10;;;;;;5071541;28;19944;-35